createdAt,value
2018-11-04T12:34:04.257Z,18
2018-11-04T12:44:14.329Z,15
2018-11-04T12:54:22.385Z,17
2018-11-04T13:04:30.105Z,20
2018-11-04T13:14:39.680Z,16
2018-11-04T13:24:47.167Z,19
2018-11-04T13:34:54.816Z,18
2018-11-04T13:45:05.669Z,19
2018-11-04T13:55:13.880Z,20
2018-11-04T14:05:23.113Z,20
2018-11-04T14:15:33.582Z,20
2018-11-04T14:25:40.946Z,21
2018-11-04T14:35:49.688Z,24
2018-11-04T14:45:58.322Z,26
2018-11-04T14:56:06.682Z,21
2018-11-04T15:06:17.208Z,18
2018-11-04T15:16:24.938Z,20
2018-11-04T15:26:34.303Z,23
2018-11-04T15:36:43.569Z,22
2018-11-04T15:46:52.168Z,23
2018-11-04T15:57:00.887Z,25
2018-11-04T16:05:20.197Z,24
2018-11-04T16:15:28.393Z,0
2018-11-04T16:25:36.356Z,22
2018-11-04T16:35:46.936Z,25
2018-11-04T16:45:54.870Z,23
2018-11-04T16:56:03.502Z,38
2018-11-04T17:06:15.209Z,19
2018-11-04T17:16:20.942Z,19
2018-11-04T17:26:29.592Z,20
2018-11-04T17:36:42.085Z,18
2018-11-04T17:56:56.654Z,23
2018-11-04T18:08:20.042Z,26
2018-11-04T18:18:25.597Z,27
2018-11-04T18:28:34.769Z,24
2018-11-04T18:38:44.461Z,30
2018-11-04T18:48:53.004Z,29
2018-11-04T18:59:02.579Z,22
2018-11-04T19:09:10.281Z,22
2018-11-04T19:19:24.117Z,25
2018-11-04T19:29:29.910Z,25
2018-11-04T19:39:39.899Z,37
2018-11-04T19:49:46.075Z,31
2018-11-04T19:59:55.899Z,19
2018-11-04T20:10:03.385Z,23
2018-11-04T20:20:17.041Z,20
2018-11-04T20:30:23.460Z,18
2018-11-04T20:40:33.378Z,20
2018-11-04T20:50:40.589Z,24
2018-11-04T21:00:48.886Z,22
2018-11-04T21:10:58.471Z,23
2018-11-04T21:21:07.319Z,29
2018-11-04T21:30:30.435Z,18
2018-11-04T21:40:40.553Z,13
2018-11-04T21:50:50.000Z,13
2018-11-04T22:00:58.408Z,13
2018-11-04T22:11:07.831Z,12
2018-11-04T22:21:17.180Z,14
2018-11-04T22:31:24.083Z,10
2018-11-04T22:41:31.802Z,10
2018-11-04T22:51:40.231Z,8
2018-11-04T23:01:47.816Z,8
2018-11-04T23:11:56.172Z,7
2018-11-04T23:22:04.372Z,7
2018-11-04T23:32:13.519Z,6
2018-11-04T23:42:21.890Z,8
2018-11-04T23:52:30.119Z,7
